| time (UTC) | temp F | wind direction | speed MPH | gust MPH | rain 1hr in | rain 24hr in | rain mn in | humidity % | barometer mb |
| 20260906113032 | 70 | 312 | 0.0 | 0.0 | 0.00 | 0.07 | 0.00 | 97 | 1011.7 |
| 20260906111537 | 70 | 313 | 0.0 | 0.0 | 0.00 | 0.07 | 0.00 | 97 | 1011.7 |
| 20260906110034 | 70 | 312 | 0.0 | 0.0 | 0.00 | 0.07 | 0.00 | 97 | 1011.7 |
| 20260906104538 | 70 | 313 | 0.0 | 0.0 | 0.00 | 0.07 | 0.00 | 97 | 1011.7 |
| 20260906103034 | 70 | 312 | 0.0 | 0.0 | 0.00 | 0.07 | 0.00 | 97 | 1011.7 |
| 20260906101532 | 70 | 312 | 0.0 | 0.0 | 0.00 | 0.07 | 0.00 | 97 | 1011.5 |
| 20260906100029 | 70 | 313 | 0.0 | 0.0 | 0.00 | 0.07 | 0.00 | 97 | 1011.5 |
| 20260906094528 | 70 | 313 | 0.0 | 0.0 | 0.00 | 0.07 | 0.00 | 97 | 1011.4 |
| 20260906093030 | 70 | 312 | 0.0 | 0.0 | 0.00 | 0.07 | 0.00 | 97 | 1011.6 |
| 20260906091530 | 70 | 313 | 0.0 | 0.0 | 0.00 | 0.07 | 0.00 | 97 | 1011.4 |
| 20260906090027 | 70 | 312 | 0.0 | 0.0 | 0.00 | 0.07 | 0.00 | 97 | 1011.4 |
| 20260906084527 | 70 | 313 | 0.0 | 0.0 | 0.00 | 0.07 | 0.00 | 97 | 1011.5 |
| 20260906083027 | 70 | 312 | 0.0 | 0.0 | 0.00 | 0.07 | 0.00 | 96 | 1011.4 |
| 20260906081524 | 70 | 312 | 0.0 | 0.0 | 0.00 | 0.07 | 0.00 | 96 | 1011.4 |
| 20260906080025 | 70 | 313 | 0.0 | 0.0 | 0.00 | 0.07 | 0.00 | 96 | 1011.3 |
| 20260906074525 | 70 | 313 | 0.0 | 0.0 | 0.00 | 0.07 | 0.00 | 96 | 1011.3 |
| 20260906073023 | 70 | 312 | 0.0 | 0.0 | 0.00 | 0.07 | 0.00 | 96 | 1011.3 |
| 20260906071518 | 70 | 313 | 0.0 | 0.0 | 0.00 | 0.07 | 0.00 | 96 | 1011.4 |
| 20260906070017 | 70 | 312 | 0.0 | 0.0 | 0.00 | 0.07 | 0.00 | 96 | 1011.4 |
| 20260906064518 | 70 | 312 | 0.0 | 0.0 | 0.00 | 0.07 | 0.00 | 96 | 1011.4 |
| 20260906063017 | 70 | 312 | 0.0 | 0.0 | 0.00 | 0.07 | 0.00 | 96 | 1011.4 |
| 20260906061514 | 71 | 312 | 0.0 | 0.0 | 0.00 | 0.07 | 0.00 | 96 | 1011.5 |
| 20260906060056 | 71 | 312 | 0.0 | 0.0 | 0.00 | 0.07 | 0.00 | 96 | 1011.8 |
| 20260906054605 | 71 | 313 | 0.0 | 0.0 | 0.00 | 0.07 | 0.00 | 96 | 1012.1 |
| 20260906053055 | 71 | 312 | 0.0 | 0.0 | 0.00 | 0.07 | 0.00 | 96 | 1012.1 |
| 20260906051648 | 71 | 312 | 0.0 | 0.0 | 0.00 | 0.07 | 0.00 | 96 | 1012.3 |
| 20260906044542 | 71 | 312 | 0.0 | 0.0 | 0.00 | 0.07 | 0.00 | 96 | 1012.3 |
| 20260906043040 | 71 | 312 | 0.0 | 0.0 | 0.00 | 0.07 | 0.00 | 96 | 1012.2 |
| 20260906041538 | 71 | 312 | 0.0 | 0.0 | 0.00 | 0.07 | 0.00 | 96 | 1012.1 |
| 20260906040040 | 72 | 312 | 0.0 | 0.0 | 0.00 | 0.07 | 0.00 | 96 | 1012.2 |
| 20260906034542 | 72 | 313 | 0.0 | 0.0 | 0.00 | 0.07 | 0.07 | 96 | 1012.3 |
| 20260906033034 | 72 | 312 | 0.0 | 0.0 | 0.00 | 0.07 | 0.07 | 96 | 1012.3 |
| 20260906031535 | 72 | 312 | 0.0 | 0.0 | 0.00 | 0.07 | 0.07 | 96 | 1012.4 |
| 20260906030036 | 72 | 312 | 0.0 | 0.0 | 0.00 | 0.07 | 0.07 | 96 | 1012.9 |
| 20260906024535 | 72 | 312 | 0.0 | 0.0 | 0.00 | 0.07 | 0.07 | 96 | 1012.9 |
| 20260906023030 | 72 | 312 | 0.0 | 0.0 | 0.00 | 0.07 | 0.07 | 95 | 1012.6 |
| 20260906021527 | 72 | 313 | 0.0 | 0.0 | 0.00 | 0.07 | 0.07 | 95 | 1012.6 |
| 20260906020031 | 72 | 312 | 0.0 | 0.0 | 0.00 | 0.07 | 0.07 | 95 | 1012.3 |
| 20260906014535 | 72 | 313 | 0.0 | 0.0 | 0.00 | 0.07 | 0.07 | 95 | 1012.5 |
| 20260906013030 | 73 | 313 | 0.0 | 0.0 | 0.00 | 0.07 | 0.07 | 95 | 1012.6 |
| 20260906011525 | 73 | 312 | 0.0 | 0.0 | 0.00 | 0.07 | 0.07 | 95 | 1012.4 |
| 20260906010025 | 73 | 278 | 0.0 | 1.0 | 0.00 | 0.07 | 0.07 | 96 | 1011.9 |
| 20260906004525 | 73 | 303 | 0.0 | 0.0 | 0.00 | 0.07 | 0.07 | 95 | 1011.1 |
| 20260906003024 | 74 | 303 | 0.0 | 0.0 | 0.00 | 0.07 | 0.07 | 95 | 1011.0 |
| 20260906001523 | 74 | 303 | 0.0 | 1.0 | 0.00 | 0.07 | 0.07 | 95 | 1010.8 |
| 20260906000024 | 74 | 5 | 0.0 | 0.0 | 0.00 | 0.07 | 0.07 | 95 | 1010.3 |
| 20260905234523 | 74 | 24 | 0.0 | 0.0 | 0.00 | 0.07 | 0.07 | 94 | 1010.0 |
| 20260905233033 | 74 | 24 | 0.0 | 1.0 | 0.00 | 0.07 | 0.07 | 94 | 1009.9 |
| 20260905231523 | 74 | 15 | 0.0 | 0.0 | 0.04 | 0.07 | 0.07 | 94 | 1010.2 |
| 20260905230021 | 74 | 15 | 0.0 | 1.0 | 0.07 | 0.07 | 0.07 | 93 | 1010.5 |
| 20260905224522 | 74 | 355 | 0.0 | 2.0 | 0.07 | 0.07 | 0.07 | 92 | 1010.9 |
| 20260905223020 | 75 | 350 | 0.0 | 3.0 | 0.06 | 0.06 | 0.06 | 89 | 1011.5 |
| 20260905221530 | 81 | 33 | 2.0 | 6.0 | 0.03 | 0.03 | 0.03 | 72 | 1010.9 |
| 20260905220018 | 91 | 49 | 0.0 | 4.0 | 0.00 | 0.00 | 0.00 | 60 | 1011.3 |
| 20260905214520 | 93 | 360 | 0.0 | 1.0 | 0.00 | 0.00 | 0.00 | 52 | 1009.5 |
| 20260905213018 | 95 | 304 | 0.0 | 0.0 | 0.00 | 0.00 | 0.00 | 53 | 1009.2 |
| 20260905211527 | 96 | 258 | 0.0 | 2.0 | 0.00 | 0.00 | 0.00 | 47 | 1009.2 |
| 20260905210015 | 96 | 197 | 1.0 | 2.0 | 0.00 | 0.00 | 0.00 | 46 | 1009.4 |
| 20260905204511 | 96 | 255 | 1.0 | 2.0 | 0.00 | 0.00 | 0.00 | 48 | 1009.6 |
| 20260905203011 | 95 | 234 | 0.0 | 1.0 | 0.00 | 0.00 | 0.00 | 51 | 1009.7 |
| 20260905201506 | 96 | 260 | 1.0 | 3.0 | 0.00 | 0.00 | 0.00 | 49 | 1010.1 |
| 20260905200004 | 96 | 355 | 0.0 | 2.0 | 0.00 | 0.00 | 0.00 | 50 | 1010.2 |
| 20260905194502 | 95 | 255 | 1.0 | 3.0 | 0.00 | 0.00 | 0.00 | 50 | 1010.2 |
| 20260905193111 | 94 | 206 | 0.0 | 2.0 | 0.00 | 0.00 | 0.00 | 52 | 1010.4 |
| 20260905191555 | 94 | 355 | 0.0 | 1.0 | 0.00 | 0.00 | 0.00 | 53 | 1010.6 |
| 20260905190053 | 94 | 29 | 0.0 | 2.0 | 0.00 | 0.00 | 0.00 | 54 | 1010.9 |
| 20260905184550 | 94 | 254 | 0.0 | 2.0 | 0.00 | 0.00 | 0.00 | 51 | 1011.1 |
| 20260905183055 | 93 | 219 | 0.0 | 3.0 | 0.00 | 0.00 | 0.00 | 51 | 1011.3 |
| 20260905181546 | 93 | 11 | 0.0 | 2.0 | 0.00 | 0.00 | 0.00 | 54 | 1011.4 |
| 20260905180044 | 94 | 29 | 0.0 | 3.0 | 0.00 | 0.00 | 0.00 | 55 | 1011.7 |
| 20260905174542 | 93 | 311 | 0.0 | 3.0 | 0.00 | 0.00 | 0.00 | 56 | 1011.8 |
| 20260905173042 | 92 | 42 | 0.0 | 2.0 | 0.00 | 0.00 | 0.00 | 58 | 1012.0 |
| 20260905171536 | 92 | 234 | 0.0 | 3.0 | 0.00 | 0.00 | 0.00 | 58 | 1012.3 |
| 20260905170032 | 91 | 312 | 0.0 | 3.0 | 0.00 | 0.00 | 0.00 | 60 | 1012.5 |
| 20260905164531 | 91 | 236 | 0.0 | 3.0 | 0.00 | 0.00 | 0.00 | 60 | 1012.6 |
| 20260905163037 | 90 | 106 | 0.0 | 3.0 | 0.00 | 0.00 | 0.00 | 62 | 1012.7 |
| 20260905161522 | 90 | 31 | 0.0 | 2.0 | 0.00 | 0.00 | 0.00 | 65 | 1013.1 |
| 20260905160025 | 88 | 16 | 0.0 | 2.0 | 0.00 | 0.00 | 0.00 | 66 | 1013.1 |
| 20260905154603 | 88 | 205 | 0.0 | 2.0 | 0.00 | 0.00 | 0.00 | 69 | 1013.5 |
| 20260905153047 | 87 | 205 | 0.0 | 1.0 | 0.00 | 0.00 | 0.00 | 70 | 1013.4 |
| 20260905151541 | 86 | 207 | 0.0 | 1.0 | 0.00 | 0.00 | 0.00 | 72 | 1013.6 |
| 20260905150039 | 85 | 250 | 0.0 | 1.0 | 0.00 | 0.00 | 0.00 | 75 | 1013.6 |
| 20260905144533 | 84 | 236 | 0.0 | 2.0 | 0.00 | 0.00 | 0.00 | 76 | 1013.7 |
| 20260905143029 | 83 | 78 | 0.0 | 0.0 | 0.00 | 0.00 | 0.00 | 79 | 1013.9 |
| 20260905141524 | 81 | 78 | 0.0 | 0.0 | 0.00 | 0.00 | 0.00 | 83 | 1014.0 |
| 20260905140021 | 80 | 78 | 0.0 | 0.0 | 0.00 | 0.00 | 0.00 | 85 | 1014.1 |
| 20260905134507 | 78 | 78 | 0.0 | 0.0 | 0.00 | 0.00 | 0.00 | 87 | 1014.0 |
| 20260905133100 | 77 | 78 | 0.0 | 0.0 | 0.00 | 0.00 | 0.00 | 91 | 1014.2 |
| 20260905131551 | 75 | 78 | 0.0 | 0.0 | 0.00 | 0.00 | 0.00 | 93 | 1014.4 |
| 20260905130050 | 74 | 78 | 0.0 | 0.0 | 0.00 | 0.00 | 0.00 | 96 | 1014.5 |
| 20260905124548 | 72 | 78 | 0.0 | 0.0 | 0.00 | 0.00 | 0.00 | 96 | 1014.4 |
| 20260905123050 | 72 | 78 | 0.0 | 0.0 | 0.00 | 0.00 | 0.00 | 96 | 1014.3 |
| 20260905121547 | 71 | 78 | 0.0 | 0.0 | 0.00 | 0.00 | 0.00 | 95 | 1014.2 |
| 20260905120146 | 71 | 78 | 0.0 | 0.0 | 0.00 | 0.00 | 0.00 | 95 | 1014.2 |
| 20260905114544 | 71 | 81 | 0.0 | 0.0 | 0.00 | 0.00 | 0.00 | 95 | 1013.9 |